Time;durP1;ratioP1;P1;durP2;ratioP2;P2;SDS_P1;SDS_P2;PMS_P1;PMS_P2;Temp;Humidity;BMP_temperature;BMP_pressure;BME280_temperature;BME280_humidity;BME280_pressure;Samples;Min_cycle;Max_cycle;Signal;HPM_P1;HPM_P2
2023/12/29 00:02:00;;;;;;;9.20;2.50;;;11.00;81.70;;;;;;808018;178;27025;-89
2023/12/29 00:04:26;;;;;;;9.90;2.80;;;11.00;81.60;;;;;;807882;174;26495;-89
2023/12/29 00:06:53;;;;;;;7.63;2.97;;;11.10;81.70;;;;;;809101;176;26481;-91
2023/12/29 00:09:20;;;;;;;3.57;1.97;;;11.10;82.30;;;;;;809213;176;27033;-89
2023/12/29 00:11:48;;;;;;;29.20;10.63;;;11.10;81.80;;;;;;808501;176;26480;-89
2023/12/29 00:14:14;;;;;;;11.20;2.80;;;11.10;82.30;;;;;;813523;176;26423;-89
2023/12/29 00:16:41;;;;;;;37.30;13.37;;;11.20;82.20;;;;;;813360;176;27032;-89
2023/12/29 00:19:08;;;;;;;13.93;4.80;;;11.20;80.10;;;;;;813083;176;26430;-88
2023/12/29 00:21:34;;;;;;;24.13;8.37;;;11.20;80.30;;;;;;813006;176;26409;-89
2023/12/29 00:35:17;;;;;;;29.37;12.17;;;11.40;78.90;;;;;;820706;174;26409;-89
2023/12/29 00:38:24;;;;;;;;;;;;;;;;;;;;;
2023/12/29 00:52:53;;;;;;;55.50;19.30;;;11.40;78.50;;;;;;812078;177;26485;-88
2023/12/29 00:55:50;;;;;;;8.03;3.70;;;11.40;78.70;;;;;;817817;172;27014;-88
2023/12/29 00:58:00;;;;;;;129.50;47.83;;;11.40;78.90;;;;;;816719;173;26404;-89
2023/12/29 01:01:31;;;;;;;;;;;;;;;;;;;;;
2023/12/29 01:09:37;;;;;;;;;;;;;;;;;;;;;
2023/12/29 01:32:03;;;;;;;12.23;4.70;;;11.50;79.20;;;;;;810506;177;26958;-90
2023/12/29 01:34:32;;;;;;;5.87;2.20;;;11.40;79.80;;;;;;834462;170;26398;-88
2023/12/29 01:36:56;;;;;;;10.60;4.93;;;11.40;79.60;;;;;;834493;170;27983;-89
2023/12/29 01:39:22;;;;;;;7.90;3.20;;;11.40;79.30;;;;;;834643;171;26382;-87
2023/12/29 01:41:49;;;;;;;18.17;5.80;;;11.40;79.00;;;;;;834753;171;26386;-89
2023/12/29 01:47:10;;;;;;;59.57;24.67;;;11.40;78.90;;;;;;829376;170;26435;-88
2023/12/29 02:00:41;;;;;;;219.27;64.43;;;11.40;78.90;;;;;;769467;170;26455;-90
2023/12/29 02:03:08;;;;;;;72.67;22.57;;;11.50;79.10;;;;;;830862;172;26583;-88
2023/12/29 02:06:00;;;;;;;;;;;;;;;;;;;;;
2023/12/29 02:08:44;;;;;;;24.87;12.17;;;11.50;79.40;;;;;;820907;171;26412;-88
2023/12/29 02:22:17;;;;;;;14.40;3.97;;;11.50;80.10;;;;;;774364;171;26894;31
2023/12/29 02:24:47;;;;;;;32.40;10.37;;;11.50;79.60;;;;;;825078;173;26464;-89
2023/12/29 02:27:23;;;;;;;16.73;6.10;;;11.50;79.50;;;;;;812463;175;27045;-88
2023/12/29 02:29:59;;;;;;;15.47;3.90;;;11.60;79.20;;;;;;827696;173;26493;-88
2023/12/29 02:32:26;;;;;;;9.97;2.53;;;11.60;78.70;;;;;;824630;173;27017;-89
2023/12/29 02:34:52;;;;;;;15.60;3.10;;;11.60;79.00;;;;;;811404;177;26520;-88
2023/12/29 02:37:19;;;;;;;12.03;2.80;;;11.60;78.70;;;;;;824625;174;26963;-88
2023/12/29 02:39:46;;;;;;;16.73;2.83;;;11.60;78.50;;;;;;824716;173;26404;-88
2023/12/29 02:42:12;;;;;;;13.00;2.63;;;11.60;78.30;;;;;;824287;174;26443;-87
2023/12/29 02:44:39;;;;;;;12.30;3.07;;;11.60;78.50;;;;;;824364;174;28000;-89
2023/12/29 02:47:06;;;;;;;14.27;2.57;;;11.70;78.30;;;;;;824214;174;26424;-88
2023/12/29 02:49:32;;;;;;;11.03;2.70;;;11.70;78.10;;;;;;825703;173;26501;-87
2023/12/29 02:51:59;;;;;;;46.90;17.53;;;11.70;78.20;;;;;;826627;174;26463;-88
2023/12/29 02:54:25;;;;;;;38.20;13.03;;;11.70;78.20;;;;;;826600;174;27049;-88
2023/12/29 02:56:52;;;;;;;179.50;58.23;;;11.70;77.80;;;;;;826616;174;26471;-88
2023/12/29 02:59:19;;;;;;;110.87;35.93;;;11.70;79.10;;;;;;826573;173;26510;-89
2023/12/29 03:01:46;;;;;;;31.37;11.80;;;11.60;79.60;;;;;;826244;174;26932;-88
2023/12/29 03:04:12;;;;;;;27.73;10.73;;;11.50;79.60;;;;;;826740;170;26474;-88
2023/12/29 03:06:38;;;;;;;19.47;8.00;;;11.60;79.70;;;;;;826542;174;26496;-89
2023/12/29 03:09:05;;;;;;;69.97;25.37;;;11.60;79.60;;;;;;826453;173;27073;-89
2023/12/29 03:11:32;;;;;;;23.50;8.33;;;11.60;79.00;;;;;;826612;174;26424;-90
2023/12/29 03:13:58;;;;;;;139.50;41.20;;;11.70;78.80;;;;;;826602;170;26468;-89
2023/12/29 03:16:25;;;;;;;35.40;12.83;;;11.70;78.70;;;;;;828246;171;27203;-89
2023/12/29 03:18:51;;;;;;;18.73;5.33;;;11.70;78.80;;;;;;828800;173;26412;-89
2023/12/29 03:21:18;;;;;;;17.00;3.83;;;11.80;78.60;;;;;;828348;173;26436;-89
2023/12/29 03:23:45;;;;;;;12.97;3.80;;;11.80;78.40;;;;;;828251;173;26483;-88
2023/12/29 03:26:11;;;;;;;7.10;2.57;;;11.80;78.90;;;;;;827565;173;26438;-89
2023/12/29 03:28:59;;;;;;;10.00;2.40;;;11.80;78.90;;;;;;812115;173;26459;-88
2023/12/29 03:32:15;;;;;;;;;;;;;;;;;;;;;
2023/12/29 03:35:01;;;;;;;13.17;2.80;;;11.90;78.80;;;;;;808371;173;26479;-89
2023/12/29 03:38:14;;;;;;;;;;;;;;;;;;;;;
2023/12/29 03:41:03;;;;;;;7.57;2.83;;;11.90;79.10;;;;;;826966;173;26430;-88
2023/12/29 03:43:30;;;;;;;11.17;3.13;;;11.80;78.80;;;;;;825645;173;26481;-88
2023/12/29 03:45:56;;;;;;;7.07;2.43;;;11.90;79.20;;;;;;827309;173;27002;-89
2023/12/29 03:48:23;;;;;;;5.73;2.37;;;11.80;79.10;;;;;;827301;173;26413;-88
2023/12/29 03:50:49;;;;;;;7.50;2.40;;;11.80;79.10;;;;;;819202;173;26475;-88
2023/12/29 03:59:48;;;;;;;;;;;;;;;;;;;;;
2023/12/29 04:02:15;;;;;;;11.97;2.50;;;11.80;80.00;;;;;;796269;177;26458;-89
2023/12/29 04:04:41;;;;;;;11.87;2.50;;;11.80;79.50;;;;;;823798;174;26465;-88
2023/12/29 04:07:08;;;;;;;8.07;2.30;;;11.80;79.70;;;;;;812531;176;26484;-90
2023/12/29 04:09:34;;;;;;;11.77;2.43;;;11.80;79.80;;;;;;824621;174;26407;-88
2023/12/29 04:12:01;;;;;;;9.20;2.30;;;11.80;79.70;;;;;;815058;174;26966;-88
2023/12/29 04:14:28;;;;;;;10.40;2.40;;;11.80;79.90;;;;;;791786;175;26388;-89
2023/12/29 04:16:54;;;;;;;5.97;2.47;;;11.80;80.10;;;;;;808514;176;26430;-88
2023/12/29 04:19:21;;;;;;;7.43;2.37;;;11.80;80.10;;;;;;808420;176;27034;-89
2023/12/29 04:21:47;;;;;;;9.87;2.90;;;11.80;79.90;;;;;;808740;176;26441;-88
2023/12/29 04:24:27;;;;;;;17.97;2.50;;;11.80;80.10;;;;;;808951;176;26438;-88
2023/12/29 04:27:11;;;;;;;7.23;2.20;;;11.80;79.70;;;;;;809662;175;26473;-89
2023/12/29 04:29:56;;;;;;;10.87;2.60;;;11.80;80.10;;;;;;811951;174;26448;-89
2023/12/29 04:40:40;;;;;;;6.03;2.17;;;11.80;80.20;;;;;;745621;171;26535;-88
2023/12/29 04:43:06;;;;;;;11.17;2.40;;;11.70;80.20;;;;;;788927;179;26489;-88
2023/12/29 04:45:33;;;;;;;10.80;2.50;;;11.80;80.00;;;;;;786626;179;26457;-88
2023/12/29 04:48:00;;;;;;;10.47;2.30;;;11.80;79.70;;;;;;786343;180;26505;-88
2023/12/29 04:50:26;;;;;;;9.60;2.30;;;11.80;80.20;;;;;;786370;181;26457;-88
2023/12/29 04:52:53;;;;;;;12.90;2.47;;;11.80;80.40;;;;;;786287;180;26584;-89
2023/12/29 04:55:20;;;;;;;13.33;2.93;;;11.80;80.60;;;;;;791404;180;26548;-88
2023/12/29 04:57:46;;;;;;;7.67;2.63;;;11.80;80.50;;;;;;797143;180;26459;-88
2023/12/29 05:00:13;;;;;;;8.97;2.30;;;11.80;80.20;;;;;;797161;180;26532;-87
2023/12/29 05:02:40;;;;;;;11.00;3.27;;;11.80;81.50;;;;;;797413;180;26470;-88
2023/12/29 05:05:07;;;;;;;11.10;2.37;;;11.80;80.50;;;;;;792164;179;26501;-89
2023/12/29 05:07:33;;;;;;;11.00;3.17;;;11.80;81.20;;;;;;785789;182;26457;-89
2023/12/29 05:10:00;;;;;;;10.60;2.17;;;11.80;81.20;;;;;;785838;179;26456;-89
2023/12/29 05:12:26;;;;;;;11.30;2.27;;;11.80;81.40;;;;;;785845;182;26460;-87
2023/12/29 05:14:53;;;;;;;9.53;2.20;;;11.80;80.80;;;;;;785718;182;27055;-88
2023/12/29 05:17:20;;;;;;;8.70;2.70;;;11.80;81.10;;;;;;785607;183;26474;-88
2023/12/29 05:19:46;;;;;;;12.03;2.63;;;11.80;81.50;;;;;;769997;183;26481;-86
2023/12/29 05:22:17;;;;;;;10.40;2.30;;;11.70;81.20;;;;;;785958;181;26504;-87
2023/12/29 05:24:40;;;;;;;14.47;3.47;;;11.70;81.20;;;;;;785259;179;26533;-87
2023/12/29 05:27:06;;;;;;;10.50;2.37;;;11.70;81.50;;;;;;785739;182;26575;-87
2023/12/29 05:29:33;;;;;;;12.00;2.67;;;11.60;81.20;;;;;;793760;180;26437;-87
2023/12/29 05:32:02;;;;;;;12.83;2.30;;;11.60;81.80;;;;;;788098;177;27026;-87
2023/12/29 05:34:26;;;;;;;11.43;2.50;;;11.60;81.40;;;;;;785714;182;26481;-87
2023/12/29 05:36:53;;;;;;;9.87;2.50;;;11.60;81.20;;;;;;785821;179;26543;-87
2023/12/29 05:39:19;;;;;;;10.93;2.50;;;11.50;81.40;;;;;;787415;180;26448;-87
2023/12/29 05:41:46;;;;;;;10.87;2.30;;;11.50;81.50;;;;;;787988;182;26519;-89
2023/12/29 05:44:13;;;;;;;15.57;2.80;;;11.40;81.70;;;;;;787469;182;27106;-87
2023/12/29 05:46:39;;;;;;;12.13;3.00;;;11.40;81.60;;;;;;782686;182;27017;-87
2023/12/29 05:49:06;;;;;;;6.70;2.20;;;11.40;81.50;;;;;;780372;183;26494;-87
2023/12/29 05:51:32;;;;;;;17.53;2.70;;;11.40;81.60;;;;;;780187;183;26499;-87
2023/12/29 05:53:59;;;;;;;14.07;3.50;;;11.30;81.60;;;;;;783723;180;26466;-87
2023/12/29 05:56:25;;;;;;;13.17;2.63;;;11.30;82.70;;;;;;780117;184;27002;-88
2023/12/29 05:58:52;;;;;;;11.67;3.17;;;11.30;81.70;;;;;;779769;184;26452;-87
2023/12/29 06:01:19;;;;;;;16.53;3.20;;;11.30;82.20;;;;;;788036;180;26485;-88
2023/12/29 06:03:45;;;;;;;10.23;2.30;;;11.30;82.10;;;;;;797483;180;27046;-87
2023/12/29 06:06:12;;;;;;;9.17;2.23;;;11.30;82.30;;;;;;797454;177;26478;-87
2023/12/29 06:08:39;;;;;;;10.37;3.93;;;11.30;82.40;;;;;;797553;180;26616;-88
2023/12/29 06:11:32;;;;;;;10.50;3.57;;;11.20;82.30;;;;;;797589;180;26992;-87
2023/12/29 06:44:24;;;;;;;7.87;2.30;;;11.20;81.20;;;;;;763751;169;26462;-87
2023/12/29 06:46:51;;;;;;;7.43;2.80;;;11.20;81.60;;;;;;802545;177;28024;-88
2023/12/29 06:49:17;;;;;;;8.83;2.67;;;11.20;81.10;;;;;;806062;177;26426;-88
2023/12/29 06:51:44;;;;;;;8.27;2.63;;;11.30;81.20;;;;;;805033;176;26406;-89
2023/12/29 06:54:11;;;;;;;10.27;2.43;;;11.30;81.00;;;;;;808134;177;26979;-88
2023/12/29 06:56:37;;;;;;;9.63;2.60;;;11.30;80.50;;;;;;804599;177;26426;-88
2023/12/29 12:16:56;;;;;;;13.77;4.23;;;12.30;87.90;;;;;;753548;170;26488;-88
2023/12/29 12:19:38;;;;;;;51.37;19.50;;;12.30;87.70;;;;;;802840;176;26510;-87
2023/12/29 12:22:23;;;;;;;110.07;41.73;;;12.30;88.50;;;;;;802360;176;27010;-88
2023/12/29 12:41:26;;;;;;;135.97;53.30;;;12.30;88.70;;;;;;753504;172;26469;-88
2023/12/29 19:57:37;;;;;;;451.00;159.00;;;11.10;91.70;;;;;;773475;183;26431;-89
2023/12/29 20:00:19;;;;;;;246.03;81.47;;;11.10;91.50;;;;;;788498;181;26468;-89
2023/12/29 20:02:51;;;;;;;161.17;53.23;;;11.00;91.10;;;;;;813663;173;26489;-90
2023/12/29 20:05:18;;;;;;;100.83;37.37;;;11.00;90.90;;;;;;821845;174;26405;-90
2023/12/29 20:07:57;;;;;;;77.33;27.83;;;10.90;90.70;;;;;;820803;173;26407;-89
2023/12/29 20:18:52;;;;;;;103.47;34.07;;;10.90;90.30;;;;;;768648;170;27026;-87
2023/12/29 20:21:28;;;;;;;128.67;45.60;;;10.90;90.00;;;;;;776331;182;26528;-87
2023/12/29 20:24:08;;;;;;;83.33;30.70;;;10.80;90.70;;;;;;804229;174;26980;-87
2023/12/29 20:29:33;;;;;;;104.73;39.00;;;10.80;90.90;;;;;;777817;184;26656;-87
2023/12/29 20:37:49;;;;;;;261.73;91.37;;;10.80;90.90;;;;;;737735;175;26849;-90
2023/12/29 20:40:26;;;;;;;98.80;38.00;;;10.80;91.20;;;;;;806613;178;26441;-88
2023/12/29 20:42:58;;;;;;;226.53;76.57;;;10.80;91.20;;;;;;782340;179;26483;-90
